sensor_id;sensor_type;location;lat;lon;timestamp;P1;durP1;ratioP1;P2;durP2;ratioP2
48596;SDS011;34382;43.160;24.148;2023-02-03T00:00:52;13.82;;;5.93;;
48596;SDS011;34382;43.160;24.148;2023-02-03T00:02:24;9.82;;;3.78;;
48596;SDS011;34382;43.160;24.148;2023-02-03T00:03:56;7.78;;;2.80;;
48596;SDS011;34382;43.160;24.148;2023-02-03T00:05:28;7.63;;;2.80;;
48596;SDS011;34382;43.160;24.148;2023-02-03T00:07:01;5.45;;;2.03;;
48596;SDS011;34382;43.160;24.148;2023-02-03T00:08:34;8.18;;;2.70;;
48596;SDS011;34382;43.160;24.148;2023-02-03T00:10:07;5.22;;;1.88;;
48596;SDS011;34382;43.160;24.148;2023-02-03T00:11:40;4.97;;;1.90;;
48596;SDS011;34382;43.160;24.148;2023-02-03T00:13:12;3.55;;;1.80;;
48596;SDS011;34382;43.160;24.148;2023-02-03T00:14:45;6.50;;;2.47;;
48596;SDS011;34382;43.160;24.148;2023-02-03T00:17:50;6.43;;;2.45;;
48596;SDS011;34382;43.160;24.148;2023-02-03T00:19:22;8.27;;;2.10;;
48596;SDS011;34382;43.160;24.148;2023-02-03T00:20:54;7.05;;;2.47;;
48596;SDS011;34382;43.160;24.148;2023-02-03T00:22:26;9.40;;;2.47;;
48596;SDS011;34382;43.160;24.148;2023-02-03T00:23:58;5.93;;;1.95;;
48596;SDS011;34382;43.160;24.148;2023-02-03T00:25:30;5.78;;;1.90;;
48596;SDS011;34382;43.160;24.148;2023-02-03T00:27:03;5.10;;;2.10;;
48596;SDS011;34382;43.160;24.148;2023-02-03T00:28:35;5.47;;;2.33;;
48596;SDS011;34382;43.160;24.148;2023-02-03T00:30:07;7.45;;;2.50;;
48596;SDS011;34382;43.160;24.148;2023-02-03T00:31:40;5.07;;;2.22;;
48596;SDS011;34382;43.160;24.148;2023-02-03T00:33:12;4.65;;;2.00;;
48596;SDS011;34382;43.160;24.148;2023-02-03T00:34:45;4.95;;;2.03;;
48596;SDS011;34382;43.160;24.148;2023-02-03T00:36:17;5.45;;;1.90;;
48596;SDS011;34382;43.160;24.148;2023-02-03T00:37:51;4.63;;;1.70;;
48596;SDS011;34382;43.160;24.148;2023-02-03T00:39:25;4.22;;;1.83;;
48596;SDS011;34382;43.160;24.148;2023-02-03T00:40:57;5.82;;;1.80;;
48596;SDS011;34382;43.160;24.148;2023-02-03T00:42:29;4.43;;;1.88;;
48596;SDS011;34382;43.160;24.148;2023-02-03T00:44:01;4.72;;;1.70;;
48596;SDS011;34382;43.160;24.148;2023-02-03T00:45:34;6.55;;;1.98;;
48596;SDS011;34382;43.160;24.148;2023-02-03T00:47:06;4.10;;;1.48;;
48596;SDS011;34382;43.160;24.148;2023-02-03T00:48:38;3.58;;;1.65;;
48596;SDS011;34382;43.160;24.148;2023-02-03T00:50:10;4.38;;;1.70;;
48596;SDS011;34382;43.160;24.148;2023-02-03T00:51:42;5.07;;;1.85;;
48596;SDS011;34382;43.160;24.148;2023-02-03T00:53:14;9.20;;;2.80;;
48596;SDS011;34382;43.160;24.148;2023-02-03T00:54:46;5.50;;;1.85;;
48596;SDS011;34382;43.160;24.148;2023-02-03T00:56:18;8.63;;;2.58;;
48596;SDS011;34382;43.160;24.148;2023-02-03T00:57:50;7.05;;;2.45;;
48596;SDS011;34382;43.160;24.148;2023-02-03T00:59:23;6.55;;;2.00;;
48596;SDS011;34382;43.160;24.148;2023-02-03T01:00:55;7.82;;;2.72;;
48596;SDS011;34382;43.160;24.148;2023-02-03T01:02:27;6.47;;;2.92;;
48596;SDS011;34382;43.160;24.148;2023-02-03T01:04:00;7.15;;;2.47;;
48596;SDS011;34382;43.160;24.148;2023-02-03T01:05:32;6.22;;;2.45;;
48596;SDS011;34382;43.160;24.148;2023-02-03T01:07:04;6.07;;;2.42;;
48596;SDS011;34382;43.160;24.148;2023-02-03T01:08:36;6.88;;;3.03;;
48596;SDS011;34382;43.160;24.148;2023-02-03T01:10:08;4.68;;;1.60;;
48596;SDS011;34382;43.160;24.148;2023-02-03T01:11:41;4.65;;;1.95;;
48596;SDS011;34382;43.160;24.148;2023-02-03T01:13:13;6.53;;;2.42;;
48596;SDS011;34382;43.160;24.148;2023-02-03T01:14:45;6.93;;;2.10;;
48596;SDS011;34382;43.160;24.148;2023-02-03T01:16:18;5.50;;;2.30;;
48596;SDS011;34382;43.160;24.148;2023-02-03T01:17:51;5.18;;;2.20;;
48596;SDS011;34382;43.160;24.148;2023-02-03T01:19:23;6.18;;;2.58;;
48596;SDS011;34382;43.160;24.148;2023-02-03T01:20:55;5.40;;;2.08;;
48596;SDS011;34382;43.160;24.148;2023-02-03T01:22:28;5.15;;;2.00;;
48596;SDS011;34382;43.160;24.148;2023-02-03T01:24:01;5.43;;;2.17;;
48596;SDS011;34382;43.160;24.148;2023-02-03T01:25:34;7.70;;;2.58;;
